West Lebanon, Pennsylvania
Current Conditions -  °F | °C
As of 6:15 AM on Saturday 25 Oct 2014 (Local Time) from KIDI Reporting Station
Overcast Overcast  
Wind Chill: 46°   Ceiling: 4300
Heat Index: 46°   Visibility: 10mi
Dew Point: 41°   Wind: 3mph
Humidity: 81%   Direction: 230°SW
Pressure: 29.98"   Gusts: NA
Location:  40.6°N, 79.35°W
Report Text: KIDI 251015Z AUTO 23003KT 10SM OVC043 08/05 A2998 RMK A01
Loading
Personal Weather Stations






























Interactive Weather Map New forecast layout! Learn more

10-Day Weather Forecast

Advertisements
Track Severe Weather on mobile